sensor_id;sensor_type;location;lat;lon;timestamp;pressure;altitude;pressure_sealevel;temperature;humidity
62928;BME280;51070;52.236;-0.892;2023-04-02T00:07:50;101062.80;;;7.47;95.18
62928;BME280;51070;52.236;-0.892;2023-04-02T00:10:38;101069.15;;;7.47;95.52
62928;BME280;51070;52.236;-0.892;2023-04-02T00:15:40;101079.19;;;7.45;96.19
62928;BME280;51070;52.236;-0.892;2023-04-02T00:18:09;101082.68;;;7.43;96.54
62928;BME280;51070;52.236;-0.892;2023-04-02T00:20:40;101078.73;;;7.39;96.61
62928;BME280;51070;52.236;-0.892;2023-04-02T00:23:11;101081.23;;;7.38;96.75
62928;BME280;51070;52.236;-0.892;2023-04-02T00:25:38;101079.30;;;7.37;96.85
62928;BME280;51070;52.236;-0.892;2023-04-02T00:28:13;101079.27;;;7.36;97.04
62928;BME280;51070;52.236;-0.892;2023-04-02T00:30:54;101081.56;;;7.34;97.17
62928;BME280;51070;52.236;-0.892;2023-04-02T00:33:24;101084.11;;;7.33;97.41
62928;BME280;51070;52.236;-0.892;2023-04-02T00:35:52;101089.11;;;7.34;97.62
62928;BME280;51070;52.236;-0.892;2023-04-02T00:38:28;101090.48;;;7.34;97.73
62928;BME280;51070;52.236;-0.892;2023-04-02T00:40:57;101090.13;;;7.33;97.67
62928;BME280;51070;52.236;-0.892;2023-04-02T00:43:23;101091.95;;;7.32;97.84
62928;BME280;51070;52.236;-0.892;2023-04-02T00:45:54;101097.69;;;7.33;98.31
62928;BME280;51070;52.236;-0.892;2023-04-02T00:50:59;101109.20;;;7.33;98.23
62928;BME280;51070;52.236;-0.892;2023-04-02T00:53:27;101118.41;;;7.32;98.14
62928;BME280;51070;52.236;-0.892;2023-04-02T00:55:56;101125.39;;;7.31;98.25
62928;BME280;51070;52.236;-0.892;2023-04-02T00:58:31;101128.50;;;7.31;98.09
62928;BME280;51070;52.236;-0.892;2023-04-02T01:00:58;101130.48;;;7.32;98.34
62928;BME280;51070;52.236;-0.892;2023-04-02T01:03:33;101138.64;;;7.34;98.40
62928;BME280;51070;52.236;-0.892;2023-04-02T01:06:13;101140.88;;;7.37;98.55
62928;BME280;51070;52.236;-0.892;2023-04-02T01:12:01;101151.14;;;7.43;98.02
62928;BME280;51070;52.236;-0.892;2023-04-02T01:17:36;101154.19;;;7.48;97.89
62928;BME280;51070;52.236;-0.892;2023-04-02T01:25:24;101160.74;;;7.46;97.27
62928;BME280;51070;52.236;-0.892;2023-04-02T01:27:56;101158.67;;;7.42;97.28
62928;BME280;51070;52.236;-0.892;2023-04-02T01:30:25;101159.39;;;7.39;97.38
62928;BME280;51070;52.236;-0.892;2023-04-02T01:32:51;101166.98;;;7.40;97.69
62928;BME280;51070;52.236;-0.892;2023-04-02T01:35:18;101170.48;;;7.41;97.62
62928;BME280;51070;52.236;-0.892;2023-04-02T01:37:53;101174.05;;;7.43;97.61
62928;BME280;51070;52.236;-0.892;2023-04-02T01:40:41;101178.38;;;7.44;97.16
62928;BME280;51070;52.236;-0.892;2023-04-02T01:43:21;101176.64;;;7.44;97.03
62928;BME280;51070;52.236;-0.892;2023-04-02T01:45:48;101179.69;;;7.43;96.91
62928;BME280;51070;52.236;-0.892;2023-04-02T01:48:20;101182.34;;;7.44;96.84
62928;BME280;51070;52.236;-0.892;2023-04-02T01:50:50;101183.29;;;7.43;96.59
62928;BME280;51070;52.236;-0.892;2023-04-02T01:53:20;101183.82;;;7.40;96.50
62928;BME280;51070;52.236;-0.892;2023-04-02T01:55:49;101183.92;;;7.38;96.56
62928;BME280;51070;52.236;-0.892;2023-04-02T01:58:19;101185.81;;;7.38;96.45
62928;BME280;51070;52.236;-0.892;2023-04-02T02:01:01;101188.64;;;7.40;96.40
62928;BME280;51070;52.236;-0.892;2023-04-02T02:03:28;101192.58;;;7.43;96.32
62928;BME280;51070;52.236;-0.892;2023-04-02T02:05:55;101190.96;;;7.45;96.25
62928;BME280;51070;52.236;-0.892;2023-04-02T02:11:13;101200.68;;;7.50;96.15
62928;BME280;51070;52.236;-0.892;2023-04-02T02:13:45;101199.60;;;7.49;95.96
62928;BME280;51070;52.236;-0.892;2023-04-02T02:16:15;101201.73;;;7.47;96.15
62928;BME280;51070;52.236;-0.892;2023-04-02T02:18:48;101205.27;;;7.45;96.26
62928;BME280;51070;52.236;-0.892;2023-04-02T02:23:56;101209.60;;;7.39;96.64
62928;BME280;51070;52.236;-0.892;2023-04-02T02:26:23;101213.61;;;7.38;96.73
62928;BME280;51070;52.236;-0.892;2023-04-02T02:28:52;101217.95;;;7.38;97.08
62928;BME280;51070;52.236;-0.892;2023-04-02T02:31:26;101219.10;;;7.41;96.90
62928;BME280;51070;52.236;-0.892;2023-04-02T02:33:59;101222.17;;;7.43;97.30
62928;BME280;51070;52.236;-0.892;2023-04-02T02:36:48;101226.33;;;7.43;97.06
62928;BME280;51070;52.236;-0.892;2023-04-02T02:42:13;101232.05;;;7.45;97.22
62928;BME280;51070;52.236;-0.892;2023-04-02T02:44:43;101234.58;;;7.43;96.89
62928;BME280;51070;52.236;-0.892;2023-04-02T02:47:32;101235.25;;;7.40;96.79
62928;BME280;51070;52.236;-0.892;2023-04-02T02:50:02;101240.14;;;7.38;96.62
62928;BME280;51070;52.236;-0.892;2023-04-02T02:52:35;101243.54;;;7.38;96.67
62928;BME280;51070;52.236;-0.892;2023-04-02T02:55:05;101249.10;;;7.39;96.68
62928;BME280;51070;52.236;-0.892;2023-04-02T02:57:37;101251.05;;;7.40;96.68
62928;BME280;51070;52.236;-0.892;2023-04-02T03:00:05;101258.85;;;7.41;96.67
62928;BME280;51070;52.236;-0.892;2023-04-02T03:02:35;101258.45;;;7.40;96.45
62928;BME280;51070;52.236;-0.892;2023-04-02T03:05:01;101262.33;;;7.38;96.45
62928;BME280;51070;52.236;-0.892;2023-04-02T03:07:30;101263.85;;;7.38;96.70
62928;BME280;51070;52.236;-0.892;2023-04-02T03:12:48;101271.29;;;7.39;96.91
62928;BME280;51070;52.236;-0.892;2023-04-02T03:15:32;101274.59;;;7.36;96.47
62928;BME280;51070;52.236;-0.892;2023-04-02T03:18:01;101280.30;;;7.34;96.55
62928;BME280;51070;52.236;-0.892;2023-04-02T03:20:38;101282.05;;;7.34;96.64
62928;BME280;51070;52.236;-0.892;2023-04-02T03:23:20;101280.91;;;7.32;96.21
62928;BME280;51070;52.236;-0.892;2023-04-02T03:28:36;101290.20;;;7.32;96.47
62928;BME280;51070;52.236;-0.892;2023-04-02T03:31:26;101291.52;;;7.32;96.03
62928;BME280;51070;52.236;-0.892;2023-04-02T03:33:58;101299.38;;;7.27;95.93
62928;BME280;51070;52.236;-0.892;2023-04-02T03:36:34;101303.27;;;7.24;95.75
62928;BME280;51070;52.236;-0.892;2023-04-02T03:41:48;101312.42;;;7.18;95.66
62928;BME280;51070;52.236;-0.892;2023-04-02T03:44:41;101317.38;;;7.17;95.74
62928;BME280;51070;52.236;-0.892;2023-04-02T03:47:33;101320.16;;;7.18;95.82
62928;BME280;51070;52.236;-0.892;2023-04-02T03:50:24;101327.92;;;7.22;95.81
62928;BME280;51070;52.236;-0.892;2023-04-02T03:52:52;101334.55;;;7.23;95.64
62928;BME280;51070;52.236;-0.892;2023-04-02T03:55:23;101338.09;;;7.22;95.30
62928;BME280;51070;52.236;-0.892;2023-04-02T03:58:17;101347.77;;;7.20;95.19
62928;BME280;51070;52.236;-0.892;2023-04-02T04:01:10;101350.27;;;7.18;95.38
62928;BME280;51070;52.236;-0.892;2023-04-02T04:03:43;101362.11;;;7.14;95.19
62928;BME280;51070;52.236;-0.892;2023-04-02T04:06:14;101368.16;;;7.12;95.23
62928;BME280;51070;52.236;-0.892;2023-04-02T04:08:49;101371.39;;;7.11;95.55
62928;BME280;51070;52.236;-0.892;2023-04-02T04:11:20;101374.38;;;7.13;95.43
62928;BME280;51070;52.236;-0.892;2023-04-02T04:13:56;101375.50;;;7.14;95.05
62928;BME280;51070;52.236;-0.892;2023-04-02T04:16:28;101375.20;;;7.15;94.75
62928;BME280;51070;52.236;-0.892;2023-04-02T04:22:19;101376.09;;;7.13;94.27
62928;BME280;51070;52.236;-0.892;2023-04-02T04:24:59;101378.84;;;7.09;93.97
62928;BME280;51070;52.236;-0.892;2023-04-02T04:27:39;101384.05;;;7.07;93.91
62928;BME280;51070;52.236;-0.892;2023-04-02T04:30:24;101386.25;;;7.07;93.92
62928;BME280;51070;52.236;-0.892;2023-04-02T04:32:56;101387.10;;;7.07;94.10
62928;BME280;51070;52.236;-0.892;2023-04-02T04:35:32;101389.04;;;7.08;94.09
62928;BME280;51070;52.236;-0.892;2023-04-02T04:38:03;101395.20;;;7.10;94.29
62928;BME280;51070;52.236;-0.892;2023-04-02T04:40:35;101401.04;;;7.13;94.20
62928;BME280;51070;52.236;-0.892;2023-04-02T04:43:06;101405.51;;;7.13;94.09
62928;BME280;51070;52.236;-0.892;2023-04-02T04:51:05;101411.20;;;7.10;93.92
62928;BME280;51070;52.236;-0.892;2023-04-02T04:53:32;101417.09;;;7.08;93.82
62928;BME280;51070;52.236;-0.892;2023-04-02T04:56:09;101422.64;;;7.09;94.00
62928;BME280;51070;52.236;-0.892;2023-04-02T04:58:42;101428.17;;;7.10;93.59
62928;BME280;51070;52.236;-0.892;2023-04-02T05:03:58;101438.61;;;7.11;93.51
62928;BME280;51070;52.236;-0.892;2023-04-02T05:07:04;101446.80;;;7.11;93.10
62928;BME280;51070;52.236;-0.892;2023-04-02T05:14:43;101456.85;;;7.03;92.79
62928;BME280;51070;52.236;-0.892;2023-04-02T05:17:18;101457.87;;;7.03;92.82
62928;BME280;51070;52.236;-0.892;2023-04-02T05:19:56;101463.91;;;7.04;92.89
62928;BME280;51070;52.236;-0.892;2023-04-02T05:24:55;101465.91;;;7.05;93.07
62928;BME280;51070;52.236;-0.892;2023-04-02T05:27:40;101473.49;;;7.05;93.05
62928;BME280;51070;52.236;-0.892;2023-04-02T05:32:54;101482.09;;;7.03;93.25
62928;BME280;51070;52.236;-0.892;2023-04-02T05:35:28;101483.86;;;6.98;93.49
62928;BME280;51070;52.236;-0.892;2023-04-02T05:37:56;101484.39;;;6.93;93.60
62928;BME280;51070;52.236;-0.892;2023-04-02T05:40:28;101491.73;;;6.86;93.45
62928;BME280;51070;52.236;-0.892;2023-04-02T05:42:56;101495.19;;;6.81;93.44
62928;BME280;51070;52.236;-0.892;2023-04-02T05:45:30;101499.47;;;6.78;93.60
62928;BME280;51070;52.236;-0.892;2023-04-02T05:48:00;101504.64;;;6.74;93.23
62928;BME280;51070;52.236;-0.892;2023-04-02T05:50:32;101510.58;;;6.71;92.96
62928;BME280;51070;52.236;-0.892;2023-04-02T05:53:24;101513.23;;;6.69;92.75
62928;BME280;51070;52.236;-0.892;2023-04-02T05:58:43;101524.52;;;6.66;91.72
62928;BME280;51070;52.236;-0.892;2023-04-02T06:01:17;101533.57;;;6.65;91.79
62928;BME280;51070;52.236;-0.892;2023-04-02T06:03:52;101540.77;;;6.64;90.96
62928;BME280;51070;52.236;-0.892;2023-04-02T06:06:40;101545.36;;;6.63;90.35
62928;BME280;51070;52.236;-0.892;2023-04-02T06:12:34;101547.93;;;6.63;89.59
62928;BME280;51070;52.236;-0.892;2023-04-02T06:15:03;101556.98;;;6.65;89.54
62928;BME280;51070;52.236;-0.892;2023-04-02T06:17:33;101564.33;;;6.65;88.74
62928;BME280;51070;52.236;-0.892;2023-04-02T06:20:12;101569.77;;;6.64;88.67
62928;BME280;51070;52.236;-0.892;2023-04-02T06:22:42;101574.95;;;6.64;88.65
62928;BME280;51070;52.236;-0.892;2023-04-02T06:25:29;101576.63;;;6.64;88.12
62928;BME280;51070;52.236;-0.892;2023-04-02T06:27:59;101582.90;;;6.62;87.62
62928;BME280;51070;52.236;-0.892;2023-04-02T06:30:37;101588.19;;;6.62;87.37
62928;BME280;51070;52.236;-0.892;2023-04-02T06:33:04;101594.34;;;6.64;86.72
62928;BME280;51070;52.236;-0.892;2023-04-02T06:35:32;101589.70;;;6.64;85.81
62928;BME280;51070;52.236;-0.892;2023-04-02T06:38:01;101596.40;;;6.64;85.21
62928;BME280;51070;52.236;-0.892;2023-04-02T06:40:41;101595.35;;;6.64;84.06
62928;BME280;51070;52.236;-0.892;2023-04-02T06:43:20;101598.40;;;6.63;84.07
62928;BME280;51070;52.236;-0.892;2023-04-02T06:45:52;101599.35;;;6.65;83.62
62928;BME280;51070;52.236;-0.892;2023-04-02T06:48:19;101604.24;;;6.66;83.19
62928;BME280;51070;52.236;-0.892;2023-04-02T06:51:09;101610.17;;;6.67;83.17
62928;BME280;51070;52.236;-0.892;2023-04-02T06:53:51;101612.56;;;6.70;82.49
62928;BME280;51070;52.236;-0.892;2023-04-02T06:56:43;101613.19;;;6.72;81.61
62928;BME280;51070;52.236;-0.892;2023-04-02T06:59:09;101613.83;;;6.73;81.28
62928;BME280;51070;52.236;-0.892;2023-04-02T07:02:01;101616.88;;;6.76;81.35
62928;BME280;51070;52.236;-0.892;2023-04-02T07:04:28;101623.02;;;6.78;81.30
62928;BME280;51070;52.236;-0.892;2023-04-02T07:06:54;101622.81;;;6.80;81.35
62928;BME280;51070;52.236;-0.892;2023-04-02T07:09:21;101623.20;;;6.84;81.47
62928;BME280;51070;52.236;-0.892;2023-04-02T07:11:47;101626.44;;;6.86;81.15
62928;BME280;51070;52.236;-0.892;2023-04-02T07:14:12;101632.30;;;6.89;81.23
62928;BME280;51070;52.236;-0.892;2023-04-02T07:16:38;101642.90;;;6.91;80.47
62928;BME280;51070;52.236;-0.892;2023-04-02T07:19:05;101645.33;;;6.91;79.97
62928;BME280;51070;52.236;-0.892;2023-04-02T07:21:31;101648.38;;;6.93;80.00
62928;BME280;51070;52.236;-0.892;2023-04-02T07:23:56;101645.39;;;6.98;80.49
62928;BME280;51070;52.236;-0.892;2023-04-02T07:26:24;101648.80;;;7.06;80.81
62928;BME280;51070;52.236;-0.892;2023-04-02T07:28:51;101654.02;;;7.12;79.88
62928;BME280;51070;52.236;-0.892;2023-04-02T07:31:22;101658.35;;;7.16;79.31
62928;BME280;51070;52.236;-0.892;2023-04-02T07:33:49;101662.05;;;7.20;79.36
62928;BME280;51070;52.236;-0.892;2023-04-02T07:36:18;101667.23;;;7.24;78.71
62928;BME280;51070;52.236;-0.892;2023-04-02T07:38:45;101673.73;;;7.26;78.84
62928;BME280;51070;52.236;-0.892;2023-04-02T07:41:11;101674.48;;;7.32;79.01
62928;BME280;51070;52.236;-0.892;2023-04-02T07:43:38;101682.41;;;7.38;78.78
62928;BME280;51070;52.236;-0.892;2023-04-02T07:46:04;101686.10;;;7.42;77.86
62928;BME280;51070;52.236;-0.892;2023-04-02T07:48:30;101688.05;;;7.46;77.83
62928;BME280;51070;52.236;-0.892;2023-04-02T07:50:56;101693.50;;;7.51;77.17
62928;BME280;51070;52.236;-0.892;2023-04-02T07:53:33;101695.39;;;7.51;76.72
62928;BME280;51070;52.236;-0.892;2023-04-02T07:56:01;101697.07;;;7.53;76.81
62928;BME280;51070;52.236;-0.892;2023-04-02T07:58:28;101701.82;;;7.58;76.85
62928;BME280;51070;52.236;-0.892;2023-04-02T08:00:54;101705.33;;;7.62;76.30
62928;BME280;51070;52.236;-0.892;2023-04-02T08:03:20;101706.64;;;7.67;76.22
62928;BME280;51070;52.236;-0.892;2023-04-02T08:05:54;101712.62;;;7.72;75.63
62928;BME280;51070;52.236;-0.892;2023-04-02T08:08:21;101715.89;;;7.78;75.77
62928;BME280;51070;52.236;-0.892;2023-04-02T08:10:47;101717.95;;;7.83;75.54
62928;BME280;51070;52.236;-0.892;2023-04-02T08:13:14;101719.63;;;7.88;75.31
62928;BME280;51070;52.236;-0.892;2023-04-02T08:15:40;101722.98;;;7.95;75.00
62928;BME280;51070;52.236;-0.892;2023-04-02T08:18:06;101726.77;;;8.02;73.42
62928;BME280;51070;52.236;-0.892;2023-04-02T08:20:31;101731.18;;;8.07;73.19
62928;BME280;51070;52.236;-0.892;2023-04-02T08:22:57;101732.92;;;8.13;72.91
62928;BME280;51070;52.236;-0.892;2023-04-02T08:25:23;101735.68;;;8.18;72.55
62928;BME280;51070;52.236;-0.892;2023-04-02T08:27:48;101735.77;;;8.26;72.15
62928;BME280;51070;52.236;-0.892;2023-04-02T08:30:16;101739.42;;;8.38;71.97
62928;BME280;51070;52.236;-0.892;2023-04-02T08:32:42;101741.76;;;8.55;71.77
62928;BME280;51070;52.236;-0.892;2023-04-02T08:35:11;101744.61;;;8.66;70.29
62928;BME280;51070;52.236;-0.892;2023-04-02T08:37:37;101749.61;;;8.72;69.99
62928;BME280;51070;52.236;-0.892;2023-04-02T08:40:04;101752.19;;;8.81;70.09
62928;BME280;51070;52.236;-0.892;2023-04-02T08:43:13;101759.88;;;8.98;69.11
62928;BME280;51070;52.236;-0.892;2023-04-02T08:46:10;101760.27;;;9.06;67.73
62928;BME280;51070;52.236;-0.892;2023-04-02T08:48:41;101761.20;;;9.16;67.71
62928;BME280;51070;52.236;-0.892;2023-04-02T08:51:20;101757.27;;;9.52;67.88
62928;BME280;51070;52.236;-0.892;2023-04-02T08:53:47;101755.60;;;9.76;66.83
62928;BME280;51070;52.236;-0.892;2023-04-02T08:59:07;101763.05;;;10.00;63.90
62928;BME280;51070;52.236;-0.892;2023-04-02T09:02:01;101766.20;;;10.15;63.11
62928;BME280;51070;52.236;-0.892;2023-04-02T09:04:30;101766.02;;;10.92;62.44
62928;BME280;51070;52.236;-0.892;2023-04-02T09:06:58;101768.70;;;11.04;62.42
62928;BME280;51070;52.236;-0.892;2023-04-02T09:09:24;101773.92;;;11.05;61.87
62928;BME280;51070;52.236;-0.892;2023-04-02T09:11:55;101775.46;;;11.20;61.55
62928;BME280;51070;52.236;-0.892;2023-04-02T09:17:23;101780.64;;;11.72;59.93
62928;BME280;51070;52.236;-0.892;2023-04-02T09:19:55;101784.16;;;12.54;57.80
62928;BME280;51070;52.236;-0.892;2023-04-02T09:22:31;101787.02;;;13.29;55.81
62928;BME280;51070;52.236;-0.892;2023-04-02T09:25:04;101785.85;;;13.13;55.42
62928;BME280;51070;52.236;-0.892;2023-04-02T09:27:35;101789.17;;;12.79;54.71
62928;BME280;51070;52.236;-0.892;2023-04-02T09:30:28;101791.05;;;12.40;55.61
62928;BME280;51070;52.236;-0.892;2023-04-02T09:33:01;101793.80;;;13.40;54.96
62928;BME280;51070;52.236;-0.892;2023-04-02T09:35:33;101797.98;;;13.96;53.38
62928;BME280;51070;52.236;-0.892;2023-04-02T09:38:21;101800.64;;;13.68;53.39
62928;BME280;51070;52.236;-0.892;2023-04-02T09:43:24;101815.12;;;12.77;53.40
62928;BME280;51070;52.236;-0.892;2023-04-02T09:46:00;101815.79;;;12.35;53.78
62928;BME280;51070;52.236;-0.892;2023-04-02T09:48:35;101815.24;;;12.02;55.10
62928;BME280;51070;52.236;-0.892;2023-04-02T09:51:15;101817.51;;;11.79;55.57
62928;BME280;51070;52.236;-0.892;2023-04-02T09:53:43;101821.82;;;11.60;56.65
62928;BME280;51070;52.236;-0.892;2023-04-02T09:56:21;101824.42;;;11.49;56.64
62928;BME280;51070;52.236;-0.892;2023-04-02T10:01:45;101831.39;;;11.46;57.22
62928;BME280;51070;52.236;-0.892;2023-04-02T10:04:36;101831.21;;;11.50;57.38
62928;BME280;51070;52.236;-0.892;2023-04-02T10:07:03;101823.52;;;11.67;56.65
62928;BME280;51070;52.236;-0.892;2023-04-02T10:09:35;101830.62;;;12.05;55.91
62928;BME280;51070;52.236;-0.892;2023-04-02T10:12:05;101834.89;;;12.23;56.01
62928;BME280;51070;52.236;-0.892;2023-04-02T10:14:39;101838.61;;;12.88;55.06
62928;BME280;51070;52.236;-0.892;2023-04-02T10:17:30;101838.98;;;13.13;53.74
62928;BME280;51070;52.236;-0.892;2023-04-02T10:20:21;101842.77;;;13.05;53.78
62928;BME280;51070;52.236;-0.892;2023-04-02T10:22:48;101844.77;;;13.15;53.91
62928;BME280;51070;52.236;-0.892;2023-04-02T10:25:15;101847.50;;;13.22;53.67
62928;BME280;51070;52.236;-0.892;2023-04-02T10:27:56;101842.45;;;13.40;53.15
62928;BME280;51070;52.236;-0.892;2023-04-02T10:33:43;101836.93;;;15.89;49.17
62928;BME280;51070;52.236;-0.892;2023-04-02T10:39:01;101855.73;;;15.31;47.81
62928;BME280;51070;52.236;-0.892;2023-04-02T10:41:48;101854.45;;;14.96;47.18
62928;BME280;51070;52.236;-0.892;2023-04-02T10:57:05;101880.88;;;13.54;49.17
62928;BME280;51070;52.236;-0.892;2023-04-02T10:59:34;101886.13;;;13.29;49.11
62928;BME280;51070;52.236;-0.892;2023-04-02T11:02:02;101892.34;;;13.03;49.06
62928;BME280;51070;52.236;-0.892;2023-04-02T11:04:38;101890.64;;;12.66;50.01
62928;BME280;51070;52.236;-0.892;2023-04-02T11:07:14;101891.76;;;12.60;50.57
62928;BME280;51070;52.236;-0.892;2023-04-02T11:09:46;101892.52;;;13.08;49.62
62928;BME280;51070;52.236;-0.892;2023-04-02T11:14:55;101886.38;;;14.09;49.04
62928;BME280;51070;52.236;-0.892;2023-04-02T11:17:22;101886.80;;;14.25;47.93
62928;BME280;51070;52.236;-0.892;2023-04-02T11:19:48;101888.71;;;14.35;47.41
62928;BME280;51070;52.236;-0.892;2023-04-02T11:22:16;101889.91;;;14.20;46.89
62928;BME280;51070;52.236;-0.892;2023-04-02T11:24:51;101892.23;;;14.02;47.73
62928;BME280;51070;52.236;-0.892;2023-04-02T11:27:34;101896.17;;;14.06;47.21
62928;BME280;51070;52.236;-0.892;2023-04-02T11:32:34;101893.70;;;14.28;47.30
62928;BME280;51070;52.236;-0.892;2023-04-02T11:35:20;101894.67;;;14.26;46.70
62928;BME280;51070;52.236;-0.892;2023-04-02T11:37:48;101892.90;;;14.16;46.91
62928;BME280;51070;52.236;-0.892;2023-04-02T11:42:49;101897.16;;;13.99;47.14
62928;BME280;51070;52.236;-0.892;2023-04-02T11:52:58;101915.44;;;13.50;47.86
62928;BME280;51070;52.236;-0.892;2023-04-02T11:55:29;101911.05;;;13.53;47.74
62928;BME280;51070;52.236;-0.892;2023-04-02T12:01:01;101922.69;;;13.45;48.05
62928;BME280;51070;52.236;-0.892;2023-04-02T12:09:29;101930.54;;;13.37;47.93
62928;BME280;51070;52.236;-0.892;2023-04-02T12:14:51;101937.27;;;13.40;47.96
62928;BME280;51070;52.236;-0.892;2023-04-02T12:20:02;101939.41;;;13.33;48.36
62928;BME280;51070;52.236;-0.892;2023-04-02T12:22:34;101944.64;;;13.38;48.15
62928;BME280;51070;52.236;-0.892;2023-04-02T12:25:03;101949.30;;;13.33;48.25
62928;BME280;51070;52.236;-0.892;2023-04-02T12:27:30;101953.75;;;13.31;48.27
62928;BME280;51070;52.236;-0.892;2023-04-02T12:30:21;101960.59;;;13.33;48.17
62928;BME280;51070;52.236;-0.892;2023-04-02T12:32:47;101963.05;;;13.46;47.60
62928;BME280;51070;52.236;-0.892;2023-04-02T12:35:39;101963.43;;;13.60;47.48
62928;BME280;51070;52.236;-0.892;2023-04-02T12:38:21;101970.05;;;13.53;47.11
62928;BME280;51070;52.236;-0.892;2023-04-02T12:40:57;101971.23;;;13.52;47.84
62928;BME280;51070;52.236;-0.892;2023-04-02T12:43:28;101976.54;;;13.80;47.62
62928;BME280;51070;52.236;-0.892;2023-04-02T12:45:56;101978.26;;;13.84;47.41
62928;BME280;51070;52.236;-0.892;2023-04-02T12:48:23;101977.90;;;13.83;47.12
62928;BME280;51070;52.236;-0.892;2023-04-02T12:50:49;101978.42;;;13.84;47.15
62928;BME280;51070;52.236;-0.892;2023-04-02T12:53:25;101980.67;;;13.83;46.65
62928;BME280;51070;52.236;-0.892;2023-04-02T12:55:53;101981.95;;;13.76;46.51
62928;BME280;51070;52.236;-0.892;2023-04-02T12:58:28;101990.70;;;13.96;46.38
62928;BME280;51070;52.236;-0.892;2023-04-02T13:01:16;101988.33;;;14.11;46.54
62928;BME280;51070;52.236;-0.892;2023-04-02T13:03:57;101983.82;;;14.20;45.60
62928;BME280;51070;52.236;-0.892;2023-04-02T13:06:23;101985.14;;;14.19;45.35
62928;BME280;51070;52.236;-0.892;2023-04-02T13:08:50;101987.15;;;14.40;45.07
62928;BME280;51070;52.236;-0.892;2023-04-02T13:11:16;101979.48;;;14.53;45.23
62928;BME280;51070;52.236;-0.892;2023-04-02T13:13:43;101981.42;;;14.40;44.83
62928;BME280;51070;52.236;-0.892;2023-04-02T13:18:42;101979.45;;;14.01;44.77
62928;BME280;51070;52.236;-0.892;2023-04-02T13:23:44;101985.01;;;14.24;45.35
62928;BME280;51070;52.236;-0.892;2023-04-02T13:26:21;101991.27;;;14.11;45.83
62928;BME280;51070;52.236;-0.892;2023-04-02T13:31:23;101990.77;;;14.02;43.91
62928;BME280;51070;52.236;-0.892;2023-04-02T13:33:48;101985.98;;;14.13;43.91
62928;BME280;51070;52.236;-0.892;2023-04-02T13:36:14;101986.39;;;14.38;43.94
62928;BME280;51070;52.236;-0.892;2023-04-02T13:38:40;101982.89;;;14.51;43.52
62928;BME280;51070;52.236;-0.892;2023-04-02T13:44:04;101988.15;;;14.39;43.85
62928;BME280;51070;52.236;-0.892;2023-04-02T13:46:31;101985.30;;;14.10;44.30
62928;BME280;51070;52.236;-0.892;2023-04-02T13:48:58;101988.88;;;13.98;44.27
62928;BME280;51070;52.236;-0.892;2023-04-02T13:51:36;101983.54;;;14.04;44.88
62928;BME280;51070;52.236;-0.892;2023-04-02T13:54:06;101983.88;;;14.17;44.49
62928;BME280;51070;52.236;-0.892;2023-04-02T13:56:33;101985.84;;;14.10;44.03
62928;BME280;51070;52.236;-0.892;2023-04-02T13:58:58;101981.31;;;13.86;44.51
62928;BME280;51070;52.236;-0.892;2023-04-02T14:01:24;101980.77;;;13.86;44.61
62928;BME280;51070;52.236;-0.892;2023-04-02T14:03:52;101976.48;;;14.14;43.99
62928;BME280;51070;52.236;-0.892;2023-04-02T14:25:56;101991.17;;;13.99;44.91
62928;BME280;51070;52.236;-0.892;2023-04-02T14:28:40;101983.16;;;13.89;45.51
62928;BME280;51070;52.236;-0.892;2023-04-02T14:31:27;101982.58;;;13.70;45.41
62928;BME280;51070;52.236;-0.892;2023-04-02T14:39:49;101987.38;;;12.89;46.09
62928;BME280;51070;52.236;-0.892;2023-04-02T14:42:48;101984.56;;;12.77;46.34
62928;BME280;51070;52.236;-0.892;2023-04-02T14:45:38;101991.36;;;12.85;46.74
62928;BME280;51070;52.236;-0.892;2023-04-02T14:48:47;101994.45;;;12.89;46.58
62928;BME280;51070;52.236;-0.892;2023-04-02T14:56:54;101984.68;;;12.95;46.12
62928;BME280;51070;52.236;-0.892;2023-04-02T14:59:29;101993.86;;;13.15;46.43
62928;BME280;51070;52.236;-0.892;2023-04-02T15:02:34;101998.26;;;13.04;46.67
62928;BME280;51070;52.236;-0.892;2023-04-02T15:05:10;101999.48;;;12.81;46.27
62928;BME280;51070;52.236;-0.892;2023-04-02T15:07:44;102001.31;;;12.75;46.70
62928;BME280;51070;52.236;-0.892;2023-04-02T15:12:45;101996.60;;;12.90;45.97
62928;BME280;51070;52.236;-0.892;2023-04-02T15:18:11;101991.66;;;12.92;46.16
62928;BME280;51070;52.236;-0.892;2023-04-02T15:21:33;101995.98;;;12.84;46.52
62928;BME280;51070;52.236;-0.892;2023-04-02T15:23:58;101999.94;;;12.63;46.66
62928;BME280;51070;52.236;-0.892;2023-04-02T15:32:17;102002.84;;;12.66;46.75
62928;BME280;51070;52.236;-0.892;2023-04-02T15:40:26;102010.77;;;13.05;46.21
62928;BME280;51070;52.236;-0.892;2023-04-02T15:43:03;102004.66;;;13.16;46.53
62928;BME280;51070;52.236;-0.892;2023-04-02T15:48:46;102012.90;;;13.14;46.71
62928;BME280;51070;52.236;-0.892;2023-04-02T15:51:57;102008.79;;;12.91;46.44
62928;BME280;51070;52.236;-0.892;2023-04-02T15:57:15;101998.57;;;12.56;46.75
62928;BME280;51070;52.236;-0.892;2023-04-02T16:10:46;102028.73;;;12.10;47.42
62928;BME280;51070;52.236;-0.892;2023-04-02T16:13:21;102033.39;;;12.06;47.73
62928;BME280;51070;52.236;-0.892;2023-04-02T16:15:54;102036.08;;;11.94;47.71
62928;BME280;51070;52.236;-0.892;2023-04-02T16:18:53;102041.78;;;11.86;47.49
62928;BME280;51070;52.236;-0.892;2023-04-02T16:21:25;102039.80;;;11.85;48.05
62928;BME280;51070;52.236;-0.892;2023-04-02T16:23:52;102034.25;;;11.99;47.65
62928;BME280;51070;52.236;-0.892;2023-04-02T16:26:32;102034.04;;;12.20;47.42
62928;BME280;51070;52.236;-0.892;2023-04-02T16:32:08;102039.30;;;12.07;47.59
62928;BME280;51070;52.236;-0.892;2023-04-02T16:34:54;102045.29;;;12.05;47.50
62928;BME280;51070;52.236;-0.892;2023-04-02T16:40:25;102050.84;;;11.91;46.39
62928;BME280;51070;52.236;-0.892;2023-04-02T16:50:52;102053.35;;;11.51;47.18
62928;BME280;51070;52.236;-0.892;2023-04-02T16:53:33;102053.05;;;11.41;47.38
62928;BME280;51070;52.236;-0.892;2023-04-02T16:56:18;102059.59;;;11.33;47.86